La Ronge Airport
CYVC : now visible

Airfield :











YOU CAN JOIN US ON...

 
LOGIN :

Register | Disclaimer

   EN    FR    IT 

 









Legend :    VFR   Marginal VFR   IFR   Intensive IFR   Very Intensive IFR
Visi :
Ceiling :
>= 8 km
>= 3000ft
5 to 8 km
1000 to 3000 ft
1500m to 5 km
500 to 1000 ft
800 to 1500m
200 to 500 ft
< 800m
< 200 ft
Symbols :   Thunderstorms  Fog  Heavy snow  Heavy precipitations  Wind > 20 kt







- Airport Elevation : 1242 ft
- IATA code : YVC


CYVC - La Ronge

CURRENT METAR :
  • 220900Z 20005KT 15SM SKC 10/06 A2962 RMK SLP041 DENSITY ALT 1300FT

EXPIRED METARs :
  • 220800Z 21006KT 15SM SKC 10/06 A2963 RMK SLP045 DENSITY ALT 1300FT
  • 220700Z 21005KT 15SM FEW060 10/06 A2965 RMK SC1 SLP050 DENSITY ALT 1300FT

TAF TAF CYVC
Valid from the 22 at 07:00 until the 22 at 19:00 UTC


220638Z 2207/2219 18006KT P6SM SCT060
FM221500 22008KT P6SM FEW060 RMK NXT FCST BY 221300Z
No reported NOTAMs for that airfield.



MET'MAP, your aeronautical weather chart ! - Copyright ORBIFLY December 2007 - Disclaimer

ORBIFLY MET'MAP TEAM :

Programming & Development : Alexandra Zaïnal
Concept & Development : Baudouin d'Aumeries
Co-Development & Prog : Marc-Olivier Méhu
Technical & hardware support : Manuel Goepfert

Contact : metmap@orbifly.com




SOURCES & CREDITS :

   NOAA       Earth
Advisory